sensor_id;sensor_type;location;lat;lon;timestamp;pressure;altitude;pressure_sealevel;temperature;humidity
39265;BME280;42646;51.910;7.724;2023-07-20T00:01:13;100744.66;;;17.47;100.00
39265;BME280;42646;51.910;7.724;2023-07-20T00:03:41;100749.22;;;17.47;100.00
39265;BME280;42646;51.910;7.724;2023-07-20T00:06:09;100748.56;;;17.45;100.00
39265;BME280;42646;51.910;7.724;2023-07-20T00:08:36;100746.03;;;17.43;100.00
39265;BME280;42646;51.910;7.724;2023-07-20T00:11:06;100748.09;;;17.41;100.00
39265;BME280;42646;51.910;7.724;2023-07-20T00:13:33;100748.28;;;17.40;100.00
39265;BME280;42646;51.910;7.724;2023-07-20T00:16:01;100739.56;;;17.38;100.00
39265;BME280;42646;51.910;7.724;2023-07-20T00:18:30;100735.34;;;17.35;100.00
39265;BME280;42646;51.910;7.724;2023-07-20T00:20:58;100739.25;;;17.32;100.00
39265;BME280;42646;51.910;7.724;2023-07-20T00:23:26;100730.69;;;17.29;100.00
39265;BME280;42646;51.910;7.724;2023-07-20T00:25:54;100731.91;;;17.26;100.00
39265;BME280;42646;51.910;7.724;2023-07-20T00:28:24;100735.78;;;17.24;100.00
39265;BME280;42646;51.910;7.724;2023-07-20T00:30:52;100740.69;;;17.20;100.00
39265;BME280;42646;51.910;7.724;2023-07-20T00:33:20;100737.50;;;17.17;100.00
39265;BME280;42646;51.910;7.724;2023-07-20T00:35:48;100740.59;;;17.14;100.00
39265;BME280;42646;51.910;7.724;2023-07-20T00:38:15;100731.19;;;17.09;100.00
39265;BME280;42646;51.910;7.724;2023-07-20T00:40:44;100740.28;;;17.08;100.00
39265;BME280;42646;51.910;7.724;2023-07-20T00:43:11;100730.69;;;17.06;100.00
39265;BME280;42646;51.910;7.724;2023-07-20T00:45:41;100730.25;;;17.02;100.00
39265;BME280;42646;51.910;7.724;2023-07-20T00:48:10;100734.78;;;17.02;100.00
39265;BME280;42646;51.910;7.724;2023-07-20T00:50:40;100738.00;;;16.97;100.00
39265;BME280;42646;51.910;7.724;2023-07-20T00:53:09;100731.94;;;16.95;100.00
39265;BME280;42646;51.910;7.724;2023-07-20T00:55:38;100736.47;;;16.95;100.00
39265;BME280;42646;51.910;7.724;2023-07-20T00:58:08;100730.66;;;16.91;100.00
39265;BME280;42646;51.910;7.724;2023-07-20T01:00:35;100729.13;;;16.89;100.00
39265;BME280;42646;51.910;7.724;2023-07-20T01:03:04;100733.03;;;16.86;100.00
39265;BME280;42646;51.910;7.724;2023-07-20T01:05:40;100728.00;;;16.83;100.00
39265;BME280;42646;51.910;7.724;2023-07-20T01:08:12;100730.22;;;16.79;100.00
39265;BME280;42646;51.910;7.724;2023-07-20T01:10:46;100731.56;;;16.75;100.00
39265;BME280;42646;51.910;7.724;2023-07-20T01:13:18;100720.31;;;16.72;100.00
39265;BME280;42646;51.910;7.724;2023-07-20T01:15:49;100727.69;;;16.70;100.00
39265;BME280;42646;51.910;7.724;2023-07-20T01:18:21;100725.38;;;16.67;100.00
39265;BME280;42646;51.910;7.724;2023-07-20T01:20:48;100723.22;;;16.62;100.00
39265;BME280;42646;51.910;7.724;2023-07-20T01:23:32;100718.88;;;16.61;100.00
39265;BME280;42646;51.910;7.724;2023-07-20T01:26:24;100722.72;;;16.59;100.00
39265;BME280;42646;51.910;7.724;2023-07-20T01:29:11;100721.25;;;16.56;100.00
39265;BME280;42646;51.910;7.724;2023-07-20T01:31:52;100730.47;;;16.53;100.00
39265;BME280;42646;51.910;7.724;2023-07-20T01:34:22;100720.75;;;16.52;100.00
39265;BME280;42646;51.910;7.724;2023-07-20T01:36:53;100728.97;;;16.51;100.00
39265;BME280;42646;51.910;7.724;2023-07-20T01:39:23;100727.31;;;16.50;100.00
39265;BME280;42646;51.910;7.724;2023-07-20T01:42:18;100727.50;;;16.48;100.00
39265;BME280;42646;51.910;7.724;2023-07-20T01:44:50;100717.75;;;16.47;100.00
39265;BME280;42646;51.910;7.724;2023-07-20T01:47:24;100718.56;;;16.48;100.00
39265;BME280;42646;51.910;7.724;2023-07-20T01:49:51;100719.44;;;16.48;100.00
39265;BME280;42646;51.910;7.724;2023-07-20T01:52:19;100723.09;;;16.47;100.00
39265;BME280;42646;51.910;7.724;2023-07-20T01:54:47;100715.06;;;16.47;100.00
39265;BME280;42646;51.910;7.724;2023-07-20T01:57:15;100721.25;;;16.48;100.00
39265;BME280;42646;51.910;7.724;2023-07-20T01:59:43;100722.13;;;16.48;100.00
39265;BME280;42646;51.910;7.724;2023-07-20T02:02:13;100719.44;;;16.48;100.00
39265;BME280;42646;51.910;7.724;2023-07-20T02:04:43;100711.53;;;16.47;100.00
39265;BME280;42646;51.910;7.724;2023-07-20T02:07:14;100716.75;;;16.48;100.00
39265;BME280;42646;51.910;7.724;2023-07-20T02:09:44;100714.72;;;16.50;100.00
39265;BME280;42646;51.910;7.724;2023-07-20T02:12:12;100715.56;;;16.51;100.00
39265;BME280;42646;51.910;7.724;2023-07-20T02:14:42;100712.88;;;16.51;100.00
39265;BME280;42646;51.910;7.724;2023-07-20T02:17:09;100712.88;;;16.51;100.00
39265;BME280;42646;51.910;7.724;2023-07-20T02:19:40;100715.38;;;16.52;100.00
39265;BME280;42646;51.910;7.724;2023-07-20T02:22:10;100717.41;;;16.50;100.00
39265;BME280;42646;51.910;7.724;2023-07-20T02:24:38;100714.53;;;16.52;100.00
39265;BME280;42646;51.910;7.724;2023-07-20T02:27:08;100722.59;;;16.52;100.00
39265;BME280;42646;51.910;7.724;2023-07-20T02:29:40;100725.28;;;16.52;100.00
39265;BME280;42646;51.910;7.724;2023-07-20T02:32:10;100726.78;;;16.54;100.00
39265;BME280;42646;51.910;7.724;2023-07-20T02:34:38;100737.53;;;16.54;100.00
39265;BME280;42646;51.910;7.724;2023-07-20T02:37:06;100741.06;;;16.55;100.00
39265;BME280;42646;51.910;7.724;2023-07-20T02:39:38;100735.31;;;16.58;100.00
39265;BME280;42646;51.910;7.724;2023-07-20T02:42:11;100734.16;;;16.52;100.00
39265;BME280;42646;51.910;7.724;2023-07-20T02:44:40;100737.88;;;16.51;100.00
39265;BME280;42646;51.910;7.724;2023-07-20T02:47:14;100734.88;;;16.46;100.00
39265;BME280;42646;51.910;7.724;2023-07-20T02:49:42;100736.22;;;16.42;100.00
39265;BME280;42646;51.910;7.724;2023-07-20T02:52:14;100732.41;;;16.37;100.00
39265;BME280;42646;51.910;7.724;2023-07-20T02:54:43;100736.44;;;16.33;100.00
39265;BME280;42646;51.910;7.724;2023-07-20T02:57:12;100740.97;;;16.32;100.00
39265;BME280;42646;51.910;7.724;2023-07-20T02:59:39;100732.25;;;16.30;100.00
39265;BME280;42646;51.910;7.724;2023-07-20T03:02:07;100734.94;;;16.30;100.00
39265;BME280;42646;51.910;7.724;2023-07-20T03:04:37;100748.53;;;16.28;100.00
39265;BME280;42646;51.910;7.724;2023-07-20T03:07:05;100745.84;;;16.28;100.00
39265;BME280;42646;51.910;7.724;2023-07-20T03:10:05;100752.22;;;16.27;100.00
39265;BME280;42646;51.910;7.724;2023-07-20T03:12:35;100758.81;;;16.25;100.00
39265;BME280;42646;51.910;7.724;2023-07-20T03:15:06;100759.78;;;16.24;100.00
39265;BME280;42646;51.910;7.724;2023-07-20T03:17:34;100763.31;;;16.24;100.00
39265;BME280;42646;51.910;7.724;2023-07-20T03:20:05;100764.31;;;16.23;100.00
39265;BME280;42646;51.910;7.724;2023-07-20T03:22:36;100766.34;;;16.21;100.00
39265;BME280;42646;51.910;7.724;2023-07-20T03:25:09;100765.50;;;16.21;100.00
39265;BME280;42646;51.910;7.724;2023-07-20T03:27:37;100763.84;;;16.20;100.00
39265;BME280;42646;51.910;7.724;2023-07-20T03:30:07;100763.00;;;16.19;100.00
39265;BME280;42646;51.910;7.724;2023-07-20T03:32:37;100768.72;;;16.16;100.00
39265;BME280;42646;51.910;7.724;2023-07-20T03:35:06;100768.88;;;16.15;100.00
39265;BME280;42646;51.910;7.724;2023-07-20T03:37:34;100763.19;;;16.10;100.00
39265;BME280;42646;51.910;7.724;2023-07-20T03:40:03;100761.84;;;16.06;100.00
39265;BME280;42646;51.910;7.724;2023-07-20T03:42:34;100763.50;;;16.07;100.00
39265;BME280;42646;51.910;7.724;2023-07-20T03:45:03;100761.69;;;15.99;100.00
39265;BME280;42646;51.910;7.724;2023-07-20T03:47:31;100776.31;;;15.96;100.00
39265;BME280;42646;51.910;7.724;2023-07-20T03:49:59;100773.13;;;15.93;100.00
39265;BME280;42646;51.910;7.724;2023-07-20T03:52:27;100779.81;;;15.89;100.00
39265;BME280;42646;51.910;7.724;2023-07-20T03:54:54;100788.88;;;15.88;100.00
39265;BME280;42646;51.910;7.724;2023-07-20T03:57:22;100781.38;;;15.83;100.00
39265;BME280;42646;51.910;7.724;2023-07-20T03:59:57;100776.16;;;15.82;100.00
39265;BME280;42646;51.910;7.724;2023-07-20T04:02:24;100773.47;;;15.82;100.00
39265;BME280;42646;51.910;7.724;2023-07-20T04:04:52;100779.00;;;15.80;100.00
39265;BME280;42646;51.910;7.724;2023-07-20T04:07:24;100778.34;;;15.78;100.00
39265;BME280;42646;51.910;7.724;2023-07-20T04:09:52;100783.72;;;15.78;100.00
39265;BME280;42646;51.910;7.724;2023-07-20T04:12:44;100778.50;;;15.76;100.00
39265;BME280;42646;51.910;7.724;2023-07-20T04:15:16;100781.19;;;15.76;100.00
39265;BME280;42646;51.910;7.724;2023-07-20T04:17:44;100785.72;;;15.76;100.00
39265;BME280;42646;51.910;7.724;2023-07-20T04:20:12;100785.22;;;15.72;100.00
39265;BME280;42646;51.910;7.724;2023-07-20T04:22:41;100786.38;;;15.70;100.00
39265;BME280;42646;51.910;7.724;2023-07-20T04:25:11;100790.91;;;15.69;100.00
39265;BME280;42646;51.910;7.724;2023-07-20T04:28:05;100790.06;;;15.69;100.00
39265;BME280;42646;51.910;7.724;2023-07-20T04:30:39;100785.91;;;15.66;100.00
39265;BME280;42646;51.910;7.724;2023-07-20T04:33:11;100793.94;;;15.66;100.00
39265;BME280;42646;51.910;7.724;2023-07-20T04:35:49;100788.72;;;15.65;100.00
39265;BME280;42646;51.910;7.724;2023-07-20T04:38:22;100799.63;;;15.63;100.00
39265;BME280;42646;51.910;7.724;2023-07-20T04:40:58;100797.97;;;15.62;100.00
39265;BME280;42646;51.910;7.724;2023-07-20T04:43:29;100804.31;;;15.61;100.00
39265;BME280;42646;51.910;7.724;2023-07-20T04:45:58;100805.31;;;15.60;100.00
39265;BME280;42646;51.910;7.724;2023-07-20T04:48:27;100809.84;;;15.60;100.00
39265;BME280;42646;51.910;7.724;2023-07-20T04:50:55;100809.84;;;15.60;100.00
39265;BME280;42646;51.910;7.724;2023-07-20T04:53:24;100808.81;;;15.61;100.00
39265;BME280;42646;51.910;7.724;2023-07-20T04:55:57;100802.44;;;15.62;100.00
39265;BME280;42646;51.910;7.724;2023-07-20T04:58:25;100807.69;;;15.63;100.00
39265;BME280;42646;51.910;7.724;2023-07-20T05:00:55;100813.03;;;15.63;100.00
39265;BME280;42646;51.910;7.724;2023-07-20T05:03:25;100815.72;;;15.63;100.00
39265;BME280;42646;51.910;7.724;2023-07-20T05:05:53;100820.06;;;15.64;100.00
39265;BME280;42646;51.910;7.724;2023-07-20T05:08:21;100816.41;;;15.65;100.00
39265;BME280;42646;51.910;7.724;2023-07-20T05:10:49;100815.53;;;15.65;100.00
39265;BME280;42646;51.910;7.724;2023-07-20T05:13:17;100820.91;;;15.65;100.00
39265;BME280;42646;51.910;7.724;2023-07-20T05:15:45;100818.22;;;15.65;100.00
39265;BME280;42646;51.910;7.724;2023-07-20T05:18:16;100819.09;;;15.65;100.00
39265;BME280;42646;51.910;7.724;2023-07-20T05:20:50;100819.09;;;15.65;100.00
39265;BME280;42646;51.910;7.724;2023-07-20T05:23:18;100821.09;;;15.63;100.00
39265;BME280;42646;51.910;7.724;2023-07-20T05:25:46;100817.38;;;15.64;100.00
39265;BME280;42646;51.910;7.724;2023-07-20T05:28:15;100820.91;;;15.65;100.00
39265;BME280;42646;51.910;7.724;2023-07-20T05:30:44;100822.44;;;15.67;100.00
39265;BME280;42646;51.910;7.724;2023-07-20T05:33:12;100816.91;;;15.69;100.00
39265;BME280;42646;51.910;7.724;2023-07-20T05:35:41;100821.94;;;15.72;100.00
39265;BME280;42646;51.910;7.724;2023-07-20T05:38:10;100824.28;;;15.75;100.00
39265;BME280;42646;51.910;7.724;2023-07-20T05:41:03;100825.94;;;15.76;100.00
39265;BME280;42646;51.910;7.724;2023-07-20T05:43:31;100827.97;;;15.74;100.00
39265;BME280;42646;51.910;7.724;2023-07-20T05:45:58;100830.47;;;15.75;100.00
39265;BME280;42646;51.910;7.724;2023-07-20T05:48:28;100843.88;;;15.75;100.00
39265;BME280;42646;51.910;7.724;2023-07-20T05:50:56;100838.53;;;15.75;100.00
39265;BME280;42646;51.910;7.724;2023-07-20T05:53:25;100844.72;;;15.76;100.00
39265;BME280;42646;51.910;7.724;2023-07-20T05:55:55;100854.63;;;15.75;100.00
39265;BME280;42646;51.910;7.724;2023-07-20T05:58:23;100856.28;;;15.76;100.00
39265;BME280;42646;51.910;7.724;2023-07-20T06:00:51;100853.59;;;15.76;100.00
39265;BME280;42646;51.910;7.724;2023-07-20T06:03:18;100851.44;;;15.80;100.00
39265;BME280;42646;51.910;7.724;2023-07-20T06:05:49;100857.47;;;15.82;100.00
39265;BME280;42646;51.910;7.724;2023-07-20T06:08:16;100855.28;;;15.86;100.00
39265;BME280;42646;51.910;7.724;2023-07-20T06:10:50;100855.28;;;15.94;100.00
39265;BME280;42646;51.910;7.724;2023-07-20T06:13:19;100860.50;;;15.95;100.00
39265;BME280;42646;51.910;7.724;2023-07-20T06:15:46;100861.16;;;15.97;100.00
39265;BME280;42646;51.910;7.724;2023-07-20T06:18:15;100857.47;;;15.98;100.00
39265;BME280;42646;51.910;7.724;2023-07-20T06:20:48;100863.84;;;15.97;100.00
39265;BME280;42646;51.910;7.724;2023-07-20T06:23:16;100864.03;;;15.96;100.00
39265;BME280;42646;51.910;7.724;2023-07-20T06:25:46;100869.53;;;15.94;100.00
39265;BME280;42646;51.910;7.724;2023-07-20T06:28:15;100862.31;;;15.95;100.00
39265;BME280;42646;51.910;7.724;2023-07-20T06:30:44;100863.19;;;15.95;100.00
39265;BME280;42646;51.910;7.724;2023-07-20T06:33:12;100867.53;;;15.96;100.00
39265;BME280;42646;51.910;7.724;2023-07-20T06:35:41;100871.53;;;16.00;100.00
39265;BME280;42646;51.910;7.724;2023-07-20T06:38:11;100866.03;;;16.02;100.00
39265;BME280;42646;51.910;7.724;2023-07-20T06:40:42;100875.09;;;16.01;100.00
39265;BME280;42646;51.910;7.724;2023-07-20T06:43:15;100875.94;;;16.01;100.00
39265;BME280;42646;51.910;7.724;2023-07-20T06:45:51;100874.56;;;16.06;100.00
39265;BME280;42646;51.910;7.724;2023-07-20T06:48:20;100876.09;;;16.08;100.00
39265;BME280;42646;51.910;7.724;2023-07-20T06:50:47;100878.41;;;16.11;100.00
39265;BME280;42646;51.910;7.724;2023-07-20T06:53:16;100876.44;;;16.13;100.00
39265;BME280;42646;51.910;7.724;2023-07-20T06:55:44;100878.25;;;16.13;100.00
39265;BME280;42646;51.910;7.724;2023-07-20T06:58:19;100878.25;;;16.13;100.00
39265;BME280;42646;51.910;7.724;2023-07-20T07:00:48;100888.66;;;16.16;100.00
39265;BME280;42646;51.910;7.724;2023-07-20T07:03:16;100884.13;;;16.16;100.00
39265;BME280;42646;51.910;7.724;2023-07-20T07:05:43;100887.81;;;16.15;100.00
39265;BME280;42646;51.910;7.724;2023-07-20T07:08:16;100891.00;;;16.11;100.00
39265;BME280;42646;51.910;7.724;2023-07-20T07:10:46;100892.03;;;16.10;100.00
39265;BME280;42646;51.910;7.724;2023-07-20T07:13:13;100893.03;;;16.09;100.00
39265;BME280;42646;51.910;7.724;2023-07-20T07:15:42;100894.03;;;16.08;100.00
39265;BME280;42646;51.910;7.724;2023-07-20T07:18:10;100892.84;;;16.10;100.00
39265;BME280;42646;51.910;7.724;2023-07-20T07:20:39;100900.72;;;16.12;100.00
39265;BME280;42646;51.910;7.724;2023-07-20T07:23:06;100895.38;;;16.12;100.00
39265;BME280;42646;51.910;7.724;2023-07-20T07:25:34;100896.72;;;16.16;100.00
39265;BME280;42646;51.910;7.724;2023-07-20T07:28:02;100894.38;;;16.21;100.00
39265;BME280;42646;51.910;7.724;2023-07-20T07:30:31;100885.94;;;16.24;100.00
39265;BME280;42646;51.910;7.724;2023-07-20T07:33:01;100893.34;;;16.30;100.00
39265;BME280;42646;51.910;7.724;2023-07-20T07:35:30;100898.53;;;16.40;100.00
39265;BME280;42646;51.910;7.724;2023-07-20T07:38:00;100896.84;;;16.47;100.00
39265;BME280;42646;51.910;7.724;2023-07-20T07:40:47;100902.34;;;16.53;100.00
39265;BME280;42646;51.910;7.724;2023-07-20T07:43:16;100908.25;;;16.57;100.00
39265;BME280;42646;51.910;7.724;2023-07-20T07:45:44;100900.97;;;16.66;100.00
39265;BME280;42646;51.910;7.724;2023-07-20T07:48:17;100910.94;;;16.73;100.00
39265;BME280;42646;51.910;7.724;2023-07-20T07:50:46;100904.50;;;16.82;100.00
39265;BME280;42646;51.910;7.724;2023-07-20T07:53:14;100912.88;;;16.88;100.00
39265;BME280;42646;51.910;7.724;2023-07-20T07:55:42;100915.19;;;16.99;100.00
39265;BME280;42646;51.910;7.724;2023-07-20T07:58:10;100927.06;;;17.13;100.00
39265;BME280;42646;51.910;7.724;2023-07-20T08:00:44;100922.84;;;17.18;98.23
39265;BME280;42646;51.910;7.724;2023-07-20T08:03:11;100920.28;;;17.25;97.71
39265;BME280;42646;51.910;7.724;2023-07-20T08:05:41;100928.34;;;17.33;98.25
39265;BME280;42646;51.910;7.724;2023-07-20T08:08:09;100926.44;;;17.42;96.05
39265;BME280;42646;51.910;7.724;2023-07-20T08:10:37;100921.03;;;17.50;94.92
39265;BME280;42646;51.910;7.724;2023-07-20T08:13:05;100930.06;;;17.57;92.42
39265;BME280;42646;51.910;7.724;2023-07-20T08:15:32;100928.50;;;17.62;89.43
39265;BME280;42646;51.910;7.724;2023-07-20T08:18:00;100932.69;;;17.65;87.89
39265;BME280;42646;51.910;7.724;2023-07-20T08:20:28;100925.94;;;17.69;87.88
39265;BME280;42646;51.910;7.724;2023-07-20T08:22:58;100923.06;;;17.71;85.40
39265;BME280;42646;51.910;7.724;2023-07-20T08:25:26;100927.56;;;17.78;87.28
39265;BME280;42646;51.910;7.724;2023-07-20T08:27:54;100924.47;;;17.89;87.18
39265;BME280;42646;51.910;7.724;2023-07-20T08:30:23;100923.03;;;18.02;86.92
39265;BME280;42646;51.910;7.724;2023-07-20T08:32:50;100924.28;;;18.14;85.00
39265;BME280;42646;51.910;7.724;2023-07-20T08:35:18;100932.66;;;18.19;83.74
39265;BME280;42646;51.910;7.724;2023-07-20T08:37:48;100931.28;;;18.23;83.66
39265;BME280;42646;51.910;7.724;2023-07-20T08:40:18;100935.31;;;18.27;83.73
39265;BME280;42646;51.910;7.724;2023-07-20T08:42:46;100935.94;;;18.29;83.52
39265;BME280;42646;51.910;7.724;2023-07-20T08:45:14;100940.31;;;18.30;83.97
39265;BME280;42646;51.910;7.724;2023-07-20T08:47:45;100939.28;;;18.31;83.16
39265;BME280;42646;51.910;7.724;2023-07-20T08:50:14;100929.19;;;18.33;81.58
39265;BME280;42646;51.910;7.724;2023-07-20T08:52:43;100933.84;;;18.39;81.10
39265;BME280;42646;51.910;7.724;2023-07-20T08:55:12;100929.38;;;18.47;80.86
39265;BME280;42646;51.910;7.724;2023-07-20T08:57:45;100925.72;;;18.62;79.68
39265;BME280;42646;51.910;7.724;2023-07-20T09:00:14;100929.66;;;18.75;80.16
39265;BME280;42646;51.910;7.724;2023-07-20T09:02:45;100927.78;;;18.90;77.22
39265;BME280;42646;51.910;7.724;2023-07-20T09:05:15;100920.44;;;18.99;76.85
39265;BME280;42646;51.910;7.724;2023-07-20T09:07:44;100925.25;;;19.03;75.98
39265;BME280;42646;51.910;7.724;2023-07-20T09:10:13;100930.41;;;18.98;75.65
39265;BME280;42646;51.910;7.724;2023-07-20T09:12:43;100934.00;;;18.90;75.29
39265;BME280;42646;51.910;7.724;2023-07-20T09:15:11;100932.88;;;18.85;75.71
39265;BME280;42646;51.910;7.724;2023-07-20T09:17:39;100935.31;;;18.80;75.85
39265;BME280;42646;51.910;7.724;2023-07-20T09:20:15;100931.75;;;18.79;75.04
39265;BME280;42646;51.910;7.724;2023-07-20T09:22:46;100935.78;;;18.83;73.41
39265;BME280;42646;51.910;7.724;2023-07-20T09:25:17;100928.53;;;18.84;72.55
39265;BME280;42646;51.910;7.724;2023-07-20T09:27:49;100930.31;;;18.91;71.91
39265;BME280;42646;51.910;7.724;2023-07-20T09:30:18;100934.47;;;18.94;72.33
39265;BME280;42646;51.910;7.724;2023-07-20T09:32:48;100928.81;;;19.04;72.20
39265;BME280;42646;51.910;7.724;2023-07-20T09:35:21;100927.03;;;19.11;71.60
39265;BME280;42646;51.910;7.724;2023-07-20T09:37:55;100929.81;;;19.17;69.84
39265;BME280;42646;51.910;7.724;2023-07-20T09:40:26;100935.78;;;19.13;69.05
39265;BME280;42646;51.910;7.724;2023-07-20T09:43:00;100933.81;;;19.07;69.40
39265;BME280;42646;51.910;7.724;2023-07-20T09:45:34;100944.13;;;19.03;70.50
39265;BME280;42646;51.910;7.724;2023-07-20T09:48:05;100937.16;;;19.09;70.28
39265;BME280;42646;51.910;7.724;2023-07-20T09:50:40;100929.44;;;19.06;71.04
39265;BME280;42646;51.910;7.724;2023-07-20T09:53:11;100928.31;;;19.15;71.61
39265;BME280;42646;51.910;7.724;2023-07-20T09:55:44;100933.22;;;19.26;71.80
39265;BME280;42646;51.910;7.724;2023-07-20T09:58:15;100934.41;;;19.38;71.03
39265;BME280;42646;51.910;7.724;2023-07-20T10:00:45;100931.44;;;19.48;70.22
39265;BME280;42646;51.910;7.724;2023-07-20T10:03:19;100932.84;;;19.59;70.16
39265;BME280;42646;51.910;7.724;2023-07-20T10:05:52;100932.50;;;19.68;69.14
39265;BME280;42646;51.910;7.724;2023-07-20T10:08:24;100931.13;;;19.72;65.83
39265;BME280;42646;51.910;7.724;2023-07-20T10:10:57;100935.41;;;19.67;65.75
39265;BME280;42646;51.910;7.724;2023-07-20T10:13:27;100930.22;;;19.65;64.29
39265;BME280;42646;51.910;7.724;2023-07-20T10:16:00;100935.22;;;19.54;64.48
39265;BME280;42646;51.910;7.724;2023-07-20T10:18:32;100933.38;;;19.54;64.29
39265;BME280;42646;51.910;7.724;2023-07-20T10:21:06;100927.78;;;19.56;65.26
39265;BME280;42646;51.910;7.724;2023-07-20T10:23:37;100932.50;;;19.68;65.92
39265;BME280;42646;51.910;7.724;2023-07-20T10:26:06;100926.03;;;19.84;66.08
39265;BME280;42646;51.910;7.724;2023-07-20T10:28:36;100928.50;;;20.00;64.09
39265;BME280;42646;51.910;7.724;2023-07-20T10:31:07;100928.56;;;20.07;63.35
39265;BME280;42646;51.910;7.724;2023-07-20T10:33:36;100918.63;;;20.14;64.75
39265;BME280;42646;51.910;7.724;2023-07-20T10:36:06;100924.09;;;20.21;62.94
39265;BME280;42646;51.910;7.724;2023-07-20T10:38:39;100922.69;;;20.25;61.38
39265;BME280;42646;51.910;7.724;2023-07-20T10:41:16;100929.31;;;20.22;59.72
39265;BME280;42646;51.910;7.724;2023-07-20T10:43:48;100925.53;;;20.17;59.34
39265;BME280;42646;51.910;7.724;2023-07-20T10:46:43;100910.94;;;20.11;59.91
39265;BME280;42646;51.910;7.724;2023-07-20T10:49:13;100924.03;;;20.14;59.83
39265;BME280;42646;51.910;7.724;2023-07-20T10:51:42;100915.63;;;20.24;61.35
39265;BME280;42646;51.910;7.724;2023-07-20T10:54:34;100912.22;;;20.43;61.20
39265;BME280;42646;51.910;7.724;2023-07-20T10:57:38;100905.56;;;20.67;62.24
39265;BME280;42646;51.910;7.724;2023-07-20T11:00:11;100907.72;;;20.78;61.25
39265;BME280;42646;51.910;7.724;2023-07-20T11:02:44;100906.31;;;20.89;60.20
39265;BME280;42646;51.910;7.724;2023-07-20T11:05:37;100900.59;;;21.05;59.81
39265;BME280;42646;51.910;7.724;2023-07-20T11:08:07;100901.84;;;21.16;56.13
39265;BME280;42646;51.910;7.724;2023-07-20T11:10:39;100900.66;;;21.25;55.64
39265;BME280;42646;51.910;7.724;2023-07-20T11:13:31;100895.53;;;21.37;55.34
39265;BME280;42646;51.910;7.724;2023-07-20T11:16:05;100901.16;;;21.42;55.21
39265;BME280;42646;51.910;7.724;2023-07-20T11:18:34;100900.75;;;21.45;55.58
39265;BME280;42646;51.910;7.724;2023-07-20T11:21:08;100896.16;;;21.46;53.94
39265;BME280;42646;51.910;7.724;2023-07-20T11:23:38;100890.97;;;21.44;54.57
39265;BME280;42646;51.910;7.724;2023-07-20T11:26:06;100892.22;;;21.48;56.02
39265;BME280;42646;51.910;7.724;2023-07-20T11:28:35;100891.41;;;21.54;55.71
39265;BME280;42646;51.910;7.724;2023-07-20T11:31:05;100907.69;;;21.61;54.88
39265;BME280;42646;51.910;7.724;2023-07-20T11:33:33;100895.19;;;21.67;53.81
39265;BME280;42646;51.910;7.724;2023-07-20T11:36:00;100893.31;;;21.74;54.70
39265;BME280;42646;51.910;7.724;2023-07-20T11:38:28;100893.75;;;21.77;53.87
39265;BME280;42646;51.910;7.724;2023-07-20T11:40:56;100889.78;;;21.80;54.13
39265;BME280;42646;51.910;7.724;2023-07-20T11:43:24;100886.25;;;21.86;51.84
39265;BME280;42646;51.910;7.724;2023-07-20T11:45:52;100893.34;;;21.94;50.73
39265;BME280;42646;51.910;7.724;2023-07-20T11:48:23;100887.09;;;21.93;50.92
39265;BME280;42646;51.910;7.724;2023-07-20T11:50:50;100882.31;;;21.95;50.43
39265;BME280;42646;51.910;7.724;2023-07-20T11:53:18;100886.47;;;21.98;50.14
39265;BME280;42646;51.910;7.724;2023-07-20T11:55:47;100883.16;;;21.89;49.92
39265;BME280;42646;51.910;7.724;2023-07-20T11:58:15;100885.19;;;21.80;49.57
39265;BME280;42646;51.910;7.724;2023-07-20T12:00:44;100880.22;;;21.77;50.41
39265;BME280;42646;51.910;7.724;2023-07-20T12:03:12;100878.97;;;21.80;51.43
39265;BME280;42646;51.910;7.724;2023-07-20T12:05:42;100870.66;;;21.88;52.78
39265;BME280;42646;51.910;7.724;2023-07-20T12:08:27;100876.06;;;21.95;50.60
39265;BME280;42646;51.910;7.724;2023-07-20T12:10:59;100867.72;;;21.90;48.77
39265;BME280;42646;51.910;7.724;2023-07-20T12:13:36;100876.47;;;21.92;50.55
39265;BME280;42646;51.910;7.724;2023-07-20T12:16:09;100871.88;;;21.99;51.88
39265;BME280;42646;51.910;7.724;2023-07-20T12:18:41;100871.69;;;22.07;50.90
39265;BME280;42646;51.910;7.724;2023-07-20T12:21:11;100866.31;;;22.13;50.84
39265;BME280;42646;51.910;7.724;2023-07-20T12:23:41;100856.72;;;22.18;48.87
39265;BME280;42646;51.910;7.724;2023-07-20T12:26:10;100853.56;;;22.21;47.53
39265;BME280;42646;51.910;7.724;2023-07-20T12:28:41;100852.31;;;22.30;47.79
39265;BME280;42646;51.910;7.724;2023-07-20T12:31:09;100859.38;;;22.44;49.73
39265;BME280;42646;51.910;7.724;2023-07-20T12:33:40;100856.84;;;22.56;49.48
39265;BME280;42646;51.910;7.724;2023-07-20T12:36:09;100863.50;;;22.66;49.87
39265;BME280;42646;51.910;7.724;2023-07-20T12:38:38;100861.63;;;22.74;47.81
39265;BME280;42646;51.910;7.724;2023-07-20T12:41:05;100853.22;;;22.82;46.67
39265;BME280;42646;51.910;7.724;2023-07-20T12:43:33;100850.31;;;22.83;46.47
39265;BME280;42646;51.910;7.724;2023-07-20T12:46:01;100856.34;;;22.85;47.73
39265;BME280;42646;51.910;7.724;2023-07-20T12:48:29;100846.56;;;22.91;46.67
39265;BME280;42646;51.910;7.724;2023-07-20T12:50:58;100849.66;;;22.95;48.25
39265;BME280;42646;51.910;7.724;2023-07-20T12:53:26;100837.31;;;23.05;48.37
39265;BME280;42646;51.910;7.724;2023-07-20T12:55:56;100835.16;;;23.21;48.77
39265;BME280;42646;51.910;7.724;2023-07-20T12:58:23;100840.91;;;23.37;46.37
39265;BME280;42646;51.910;7.724;2023-07-20T13:00:51;100841.03;;;23.49;45.19